sensor_id;sensor_type;location;lat;lon;timestamp;pressure;altitude;pressure_sealevel;temperature;humidity
55486;BME280;49383;-25.924;28.194;2023-03-20T00:02:22;85336.89;;;20.33;47.58
55486;BME280;49383;-25.924;28.194;2023-03-20T00:04:46;85332.83;;;20.53;49.05
55486;BME280;49383;-25.924;28.194;2023-03-20T00:07:11;85329.88;;;20.44;47.72
55486;BME280;49383;-25.924;28.194;2023-03-20T00:09:36;85327.07;;;20.70;46.08
55486;BME280;49383;-25.924;28.194;2023-03-20T00:12:01;85325.57;;;20.06;48.76
55486;BME280;49383;-25.924;28.194;2023-03-20T00:14:26;85326.84;;;20.43;47.78
55486;BME280;49383;-25.924;28.194;2023-03-20T00:16:51;85324.83;;;20.28;45.95
55486;BME280;49383;-25.924;28.194;2023-03-20T00:19:19;85327.82;;;20.54;48.77
55486;BME280;49383;-25.924;28.194;2023-03-20T00:21:42;85328.57;;;20.65;49.37
55486;BME280;49383;-25.924;28.194;2023-03-20T00:24:07;85328.56;;;20.29;45.38
55486;BME280;49383;-25.924;28.194;2023-03-20T00:26:34;85327.89;;;20.22;48.34
55486;BME280;49383;-25.924;28.194;2023-03-20T00:28:57;85329.19;;;20.46;50.03
55486;BME280;49383;-25.924;28.194;2023-03-20T00:31:25;85326.29;;;20.42;45.53
55486;BME280;49383;-25.924;28.194;2023-03-20T00:33:47;85330.64;;;20.64;45.73
55486;BME280;49383;-25.924;28.194;2023-03-20T00:36:12;85328.21;;;20.67;48.65
55486;BME280;49383;-25.924;28.194;2023-03-20T00:38:37;85325.07;;;20.78;49.77
55486;BME280;49383;-25.924;28.194;2023-03-20T00:41:02;85323.38;;;20.30;45.48
55486;BME280;49383;-25.924;28.194;2023-03-20T00:43:27;85321.63;;;20.74;48.24
55486;BME280;49383;-25.924;28.194;2023-03-20T00:45:53;85322.38;;;20.72;49.68
55486;BME280;49383;-25.924;28.194;2023-03-20T00:48:17;85319.75;;;20.73;45.38
55486;BME280;49383;-25.924;28.194;2023-03-20T00:50:42;85318.71;;;20.77;47.90
55486;BME280;49383;-25.924;28.194;2023-03-20T00:53:09;85318.24;;;20.87;48.68
55486;BME280;49383;-25.924;28.194;2023-03-20T00:55:33;85316.01;;;20.62;44.77
55486;BME280;49383;-25.924;28.194;2023-03-20T00:57:59;85317.08;;;20.73;44.99
55486;BME280;49383;-25.924;28.194;2023-03-20T01:00:27;85317.31;;;20.69;45.05
55486;BME280;49383;-25.924;28.194;2023-03-20T01:02:49;85321.37;;;20.44;44.82
55486;BME280;49383;-25.924;28.194;2023-03-20T01:05:13;85319.60;;;20.46;44.64
55486;BME280;49383;-25.924;28.194;2023-03-20T01:07:38;85319.40;;;20.55;45.20
55486;BME280;49383;-25.924;28.194;2023-03-20T01:10:04;85321.72;;;20.52;48.11
55486;BME280;49383;-25.924;28.194;2023-03-20T01:12:29;85327.22;;;20.39;47.35
55486;BME280;49383;-25.924;28.194;2023-03-20T01:14:55;85335.47;;;20.71;43.77
55486;BME280;49383;-25.924;28.194;2023-03-20T01:17:20;85333.43;;;20.77;43.61
55486;BME280;49383;-25.924;28.194;2023-03-20T01:19:44;85332.99;;;20.69;43.70
55486;BME280;49383;-25.924;28.194;2023-03-20T01:22:09;85331.52;;;20.87;43.69
55486;BME280;49383;-25.924;28.194;2023-03-20T01:24:34;85330.98;;;20.74;43.71
55486;BME280;49383;-25.924;28.194;2023-03-20T01:26:59;85339.08;;;20.94;43.57
55486;BME280;49383;-25.924;28.194;2023-03-20T01:29:25;85341.16;;;20.36;43.71
55486;BME280;49383;-25.924;28.194;2023-03-20T01:31:50;85343.73;;;20.84;44.61
55486;BME280;49383;-25.924;28.194;2023-03-20T01:34:16;85343.27;;;20.83;47.11
55486;BME280;49383;-25.924;28.194;2023-03-20T01:36:43;85343.04;;;20.78;46.03
55486;BME280;49383;-25.924;28.194;2023-03-20T01:39:06;85343.29;;;20.54;44.97
55486;BME280;49383;-25.924;28.194;2023-03-20T01:41:31;85345.46;;;20.69;47.37
55486;BME280;49383;-25.924;28.194;2023-03-20T01:43:56;85346.58;;;20.64;47.38
55486;BME280;49383;-25.924;28.194;2023-03-20T01:46:24;85344.46;;;20.76;43.50
55486;BME280;49383;-25.924;28.194;2023-03-20T01:51:11;85343.06;;;20.60;48.11
55486;BME280;49383;-25.924;28.194;2023-03-20T01:53:37;85342.80;;;20.96;44.18
55486;BME280;49383;-25.924;28.194;2023-03-20T01:56:02;85343.04;;;20.78;47.61
55486;BME280;49383;-25.924;28.194;2023-03-20T01:58:30;85345.05;;;20.67;49.14
55486;BME280;49383;-25.924;28.194;2023-03-20T02:00:52;85342.35;;;20.83;44.91
55486;BME280;49383;-25.924;28.194;2023-03-20T02:03:19;85345.26;;;20.72;47.10
55486;BME280;49383;-25.924;28.194;2023-03-20T02:05:43;85347.23;;;20.59;48.39
55486;BME280;49383;-25.924;28.194;2023-03-20T02:08:16;85349.18;;;20.40;46.59
55486;BME280;49383;-25.924;28.194;2023-03-20T02:10:33;85347.69;;;20.33;44.99
55486;BME280;49383;-25.924;28.194;2023-03-20T02:12:58;85350.46;;;20.78;44.93
55486;BME280;49383;-25.924;28.194;2023-03-20T02:15:26;85348.86;;;20.67;47.82
55486;BME280;49383;-25.924;28.194;2023-03-20T02:17:48;85348.22;;;20.64;47.34
55486;BME280;49383;-25.924;28.194;2023-03-20T02:20:22;85347.57;;;20.63;44.50
55486;BME280;49383;-25.924;28.194;2023-03-20T02:22:56;85349.32;;;20.61;47.86
55486;BME280;49383;-25.924;28.194;2023-03-20T02:27:36;85349.23;;;20.46;45.95
55486;BME280;49383;-25.924;28.194;2023-03-20T02:30:09;85349.58;;;20.79;44.78
55486;BME280;49383;-25.924;28.194;2023-03-20T02:32:30;85354.51;;;20.78;44.97
55486;BME280;49383;-25.924;28.194;2023-03-20T02:42:05;85360.45;;;20.59;44.81
55486;BME280;49383;-25.924;28.194;2023-03-20T02:44:32;85367.58;;;20.95;47.72
55486;BME280;49383;-25.924;28.194;2023-03-20T02:46:56;85372.65;;;20.68;48.68
55486;BME280;49383;-25.924;28.194;2023-03-20T02:49:22;85370.73;;;20.83;44.92
55486;BME280;49383;-25.924;28.194;2023-03-20T02:51:43;85371.58;;;20.64;46.27
55486;BME280;49383;-25.924;28.194;2023-03-20T02:54:09;85373.39;;;20.55;48.21
55486;BME280;49383;-25.924;28.194;2023-03-20T02:56:34;85376.24;;;20.90;49.10
55486;BME280;49383;-25.924;28.194;2023-03-20T02:59:03;85371.16;;;20.73;46.09
55486;BME280;49383;-25.924;28.194;2023-03-20T03:01:23;85372.39;;;20.80;47.68
55486;BME280;49383;-25.924;28.194;2023-03-20T03:03:49;85371.24;;;20.29;49.44
55486;BME280;49383;-25.924;28.194;2023-03-20T03:06:16;85372.70;;;20.52;47.27
55486;BME280;49383;-25.924;28.194;2023-03-20T03:08:39;85378.48;;;20.84;46.92
55486;BME280;49383;-25.924;28.194;2023-03-20T03:11:04;85381.44;;;20.88;48.97
55486;BME280;49383;-25.924;28.194;2023-03-20T03:13:29;85379.22;;;20.67;50.08
55486;BME280;49383;-25.924;28.194;2023-03-20T03:15:54;85380.54;;;20.84;45.75
55486;BME280;49383;-25.924;28.194;2023-03-20T03:18:19;85385.07;;;20.90;47.97
55486;BME280;49383;-25.924;28.194;2023-03-20T03:20:42;85388.85;;;20.76;49.47
55486;BME280;49383;-25.924;28.194;2023-03-20T03:23:09;85395.50;;;20.44;47.97
55486;BME280;49383;-25.924;28.194;2023-03-20T03:25:33;85396.25;;;20.66;47.01
55486;BME280;49383;-25.924;28.194;2023-03-20T03:28:00;85398.42;;;20.73;49.23
55486;BME280;49383;-25.924;28.194;2023-03-20T03:30:26;85403.66;;;21.05;50.01
55486;BME280;49383;-25.924;28.194;2023-03-20T03:32:49;85409.08;;;20.65;45.80
55486;BME280;49383;-25.924;28.194;2023-03-20T03:35:17;85412.07;;;21.13;48.27
55486;BME280;49383;-25.924;28.194;2023-03-20T03:37:44;85417.56;;;20.79;49.28
55486;BME280;49383;-25.924;28.194;2023-03-20T03:40:08;85419.52;;;20.86;46.91
55486;BME280;49383;-25.924;28.194;2023-03-20T03:42:30;85420.11;;;21.26;46.81
55486;BME280;49383;-25.924;28.194;2023-03-20T03:44:55;85424.99;;;20.78;48.78
55486;BME280;49383;-25.924;28.194;2023-03-20T03:47:21;85428.08;;;20.84;48.27
55486;BME280;49383;-25.924;28.194;2023-03-20T03:49:47;85429.10;;;20.87;46.42
55486;BME280;49383;-25.924;28.194;2023-03-20T03:52:10;85433.81;;;20.68;48.74
55486;BME280;49383;-25.924;28.194;2023-03-20T03:54:37;85433.53;;;20.75;49.84
55486;BME280;49383;-25.924;28.194;2023-03-20T03:56:58;85434.52;;;20.77;46.70
55486;BME280;49383;-25.924;28.194;2023-03-20T03:59:27;85435.22;;;21.03;45.42
55486;BME280;49383;-25.924;28.194;2023-03-20T04:01:50;85436.74;;;20.93;45.58
55486;BME280;49383;-25.924;28.194;2023-03-20T04:04:14;85437.46;;;20.69;48.68
55486;BME280;49383;-25.924;28.194;2023-03-20T04:06:38;85440.46;;;20.62;49.83
55486;BME280;49383;-25.924;28.194;2023-03-20T04:09:03;85441.21;;;20.73;45.39
55486;BME280;49383;-25.924;28.194;2023-03-20T04:11:29;85439.67;;;21.10;47.47
55486;BME280;49383;-25.924;28.194;2023-03-20T04:13:53;85440.66;;;20.74;49.27
55486;BME280;49383;-25.924;28.194;2023-03-20T04:16:20;85442.16;;;20.57;47.71
55486;BME280;49383;-25.924;28.194;2023-03-20T04:18:44;85443.46;;;20.91;45.80
55486;BME280;49383;-25.924;28.194;2023-03-20T04:21:09;85446.58;;;20.65;48.37
55486;BME280;49383;-25.924;28.194;2023-03-20T04:23:34;85449.58;;;20.87;48.34
55486;BME280;49383;-25.924;28.194;2023-03-20T04:25:59;85452.47;;;20.89;46.42
55486;BME280;49383;-25.924;28.194;2023-03-20T04:28:24;85457.26;;;20.73;48.79
55486;BME280;49383;-25.924;28.194;2023-03-20T04:30:52;85458.10;;;20.80;49.22
55486;BME280;49383;-25.924;28.194;2023-03-20T04:33:14;85455.57;;;20.54;44.80
55486;BME280;49383;-25.924;28.194;2023-03-20T04:35:39;85457.86;;;20.65;47.66
55486;BME280;49383;-25.924;28.194;2023-03-20T04:38:04;85457.26;;;20.42;49.30
55486;BME280;49383;-25.924;28.194;2023-03-20T04:40:29;85458.35;;;20.67;45.88
55486;BME280;49383;-25.924;28.194;2023-03-20T04:42:54;85460.90;;;20.76;45.88
55486;BME280;49383;-25.924;28.194;2023-03-20T04:45:19;85461.43;;;20.68;48.27
55486;BME280;49383;-25.924;28.194;2023-03-20T04:47:45;85460.26;;;20.53;48.46
55486;BME280;49383;-25.924;28.194;2023-03-20T04:50:11;85463.69;;;21.00;44.22
55486;BME280;49383;-25.924;28.194;2023-03-20T04:52:35;85465.10;;;20.62;43.87
55486;BME280;49383;-25.924;28.194;2023-03-20T04:55:00;85468.20;;;20.63;44.20
55486;BME280;49383;-25.924;28.194;2023-03-20T04:57:25;85466.48;;;20.69;44.04
55486;BME280;49383;-25.924;28.194;2023-03-20T04:59:51;85468.33;;;20.83;43.84
55486;BME280;49383;-25.924;28.194;2023-03-20T05:02:16;85468.45;;;21.05;43.67
55486;BME280;49383;-25.924;28.194;2023-03-20T05:04:41;85467.40;;;20.62;43.72
55486;BME280;49383;-25.924;28.194;2023-03-20T05:07:06;85468.58;;;20.83;43.76
55486;BME280;49383;-25.924;28.194;2023-03-20T05:09:31;85469.72;;;20.88;43.69
55486;BME280;49383;-25.924;28.194;2023-03-20T05:11:57;85473.39;;;20.93;43.72
55486;BME280;49383;-25.924;28.194;2023-03-20T05:14:23;85476.23;;;20.85;43.84
55486;BME280;49383;-25.924;28.194;2023-03-20T05:16:48;85475.95;;;20.60;43.88
55486;BME280;49383;-25.924;28.194;2023-03-20T05:19:13;85480.00;;;20.86;43.95
55486;BME280;49383;-25.924;28.194;2023-03-20T05:21:39;85485.86;;;20.96;43.84
55486;BME280;49383;-25.924;28.194;2023-03-20T05:24:05;85484.77;;;20.65;43.90
55486;BME280;49383;-25.924;28.194;2023-03-20T05:26:30;85488.18;;;20.77;43.81
55486;BME280;49383;-25.924;28.194;2023-03-20T05:28:54;85488.05;;;21.19;43.56
55486;BME280;49383;-25.924;28.194;2023-03-20T05:31:19;85489.19;;;20.96;43.59
55486;BME280;49383;-25.924;28.194;2023-03-20T05:33:45;85489.19;;;20.83;43.50
55486;BME280;49383;-25.924;28.194;2023-03-20T05:36:11;85489.81;;;20.90;43.45
55486;BME280;49383;-25.924;28.194;2023-03-20T05:38:37;85489.00;;;20.83;43.04
55486;BME280;49383;-25.924;28.194;2023-03-20T05:41:03;85487.96;;;21.26;42.22
55486;BME280;49383;-25.924;28.194;2023-03-20T05:43:28;85490.39;;;21.21;42.13
55486;BME280;49383;-25.924;28.194;2023-03-20T05:45:53;85493.55;;;21.33;41.30
55486;BME280;49383;-25.924;28.194;2023-03-20T05:48:18;85492.16;;;21.28;41.51
55486;BME280;49383;-25.924;28.194;2023-03-20T05:50:43;85493.97;;;21.43;40.92
55486;BME280;49383;-25.924;28.194;2023-03-20T05:53:09;85496.29;;;21.40;40.40
55486;BME280;49383;-25.924;28.194;2023-03-20T05:55:34;85499.01;;;21.50;39.96
55486;BME280;49383;-25.924;28.194;2023-03-20T05:58:00;85498.16;;;21.46;40.39
55486;BME280;49383;-25.924;28.194;2023-03-20T06:00:26;85503.47;;;21.54;40.08
55486;BME280;49383;-25.924;28.194;2023-03-20T06:02:51;85508.76;;;21.62;41.12
55486;BME280;49383;-25.924;28.194;2023-03-20T06:05:17;85512.67;;;21.45;42.02
55486;BME280;49383;-25.924;28.194;2023-03-20T06:07:43;85517.02;;;21.56;42.33
55486;BME280;49383;-25.924;28.194;2023-03-20T06:10:09;85520.31;;;21.72;42.54
55486;BME280;49383;-25.924;28.194;2023-03-20T06:12:33;85522.20;;;21.85;41.84
55486;BME280;49383;-25.924;28.194;2023-03-20T06:14:58;85524.32;;;21.80;41.21
55486;BME280;49383;-25.924;28.194;2023-03-20T06:17:23;85525.19;;;21.89;41.33
55486;BME280;49383;-25.924;28.194;2023-03-20T06:19:48;85525.86;;;21.81;41.71
55486;BME280;49383;-25.924;28.194;2023-03-20T06:22:14;85522.46;;;21.66;40.79
55486;BME280;49383;-25.924;28.194;2023-03-20T06:24:39;85521.88;;;21.89;40.51
55486;BME280;49383;-25.924;28.194;2023-03-20T06:27:05;85518.51;;;22.00;39.92
55486;BME280;49383;-25.924;28.194;2023-03-20T06:29:30;85518.80;;;21.92;40.76
55486;BME280;49383;-25.924;28.194;2023-03-20T06:31:56;85522.48;;;21.92;39.79
55486;BME280;49383;-25.924;28.194;2023-03-20T06:34:21;85525.36;;;21.67;39.58
55486;BME280;49383;-25.924;28.194;2023-03-20T06:36:46;85527.04;;;21.69;40.94
55486;BME280;49383;-25.924;28.194;2023-03-20T06:39:11;85526.81;;;21.59;41.68
55486;BME280;49383;-25.924;28.194;2023-03-20T06:41:37;85528.30;;;22.04;40.72
55486;BME280;49383;-25.924;28.194;2023-03-20T06:44:02;85524.77;;;21.67;39.64
55486;BME280;49383;-25.924;28.194;2023-03-20T06:46:27;85531.06;;;21.57;39.18
55486;BME280;49383;-25.924;28.194;2023-03-20T06:48:52;85530.30;;;21.46;38.58
55486;BME280;49383;-25.924;28.194;2023-03-20T06:51:18;85524.98;;;21.46;37.27
55486;BME280;49383;-25.924;28.194;2023-03-20T06:53:43;85522.23;;;21.64;36.18
55486;BME280;49383;-25.924;28.194;2023-03-20T06:56:09;85522.80;;;21.40;34.79
55486;BME280;49383;-25.924;28.194;2023-03-20T06:58:34;85524.20;;;21.72;35.60
55486;BME280;49383;-25.924;28.194;2023-03-20T07:00:59;85521.77;;;21.31;36.02
55486;BME280;49383;-25.924;28.194;2023-03-20T07:03:25;85523.10;;;21.73;35.96
55486;BME280;49383;-25.924;28.194;2023-03-20T07:05:50;85523.65;;;21.56;36.40
55486;BME280;49383;-25.924;28.194;2023-03-20T07:08:15;85523.53;;;21.69;36.04
55486;BME280;49383;-25.924;28.194;2023-03-20T07:10:40;85523.79;;;22.04;36.17
55486;BME280;49383;-25.924;28.194;2023-03-20T07:13:06;85527.43;;;22.18;36.30
55486;BME280;49383;-25.924;28.194;2023-03-20T07:15:31;85524.18;;;22.19;37.07
55486;BME280;49383;-25.924;28.194;2023-03-20T07:17:56;85523.50;;;22.00;37.90
55486;BME280;49383;-25.924;28.194;2023-03-20T07:20:22;85523.16;;;22.34;38.53
55486;BME280;49383;-25.924;28.194;2023-03-20T07:22:48;85523.54;;;22.34;39.21
55486;BME280;49383;-25.924;28.194;2023-03-20T07:25:13;85522.94;;;22.27;38.39
55486;BME280;49383;-25.924;28.194;2023-03-20T07:27:38;85527.55;;;22.33;38.27
55486;BME280;49383;-25.924;28.194;2023-03-20T07:30:04;85527.75;;;22.11;36.99
55486;BME280;49383;-25.924;28.194;2023-03-20T07:32:29;85521.41;;;22.33;35.51
55486;BME280;49383;-25.924;28.194;2023-03-20T07:34:54;85515.98;;;22.84;34.81
55486;BME280;49383;-25.924;28.194;2023-03-20T07:37:19;85520.01;;;22.70;36.42
55486;BME280;49383;-25.924;28.194;2023-03-20T07:39:45;85524.86;;;22.32;38.49
55486;BME280;49383;-25.924;28.194;2023-03-20T07:42:10;85520.73;;;22.26;40.04
55486;BME280;49383;-25.924;28.194;2023-03-20T07:44:36;85520.86;;;22.13;39.91
55486;BME280;49383;-25.924;28.194;2023-03-20T07:47:01;85516.73;;;21.93;40.00
55486;BME280;49383;-25.924;28.194;2023-03-20T07:49:27;85516.96;;;21.76;39.45
55486;BME280;49383;-25.924;28.194;2023-03-20T07:51:52;85521.76;;;22.17;39.21
55486;BME280;49383;-25.924;28.194;2023-03-20T07:54:18;85523.73;;;22.22;37.77
55486;BME280;49383;-25.924;28.194;2023-03-20T07:56:43;85520.68;;;22.10;37.11
55486;BME280;49383;-25.924;28.194;2023-03-20T07:59:09;85524.38;;;22.04;36.18
55486;BME280;49383;-25.924;28.194;2023-03-20T08:01:34;85519.66;;;21.81;34.86
55486;BME280;49383;-25.924;28.194;2023-03-20T08:03:59;85516.22;;;22.67;34.40
55486;BME280;49383;-25.924;28.194;2023-03-20T08:06:25;85519.50;;;22.45;34.90
55486;BME280;49383;-25.924;28.194;2023-03-20T08:08:50;85516.83;;;22.77;34.93
55486;BME280;49383;-25.924;28.194;2023-03-20T08:11:15;85512.22;;;22.48;35.14
55486;BME280;49383;-25.924;28.194;2023-03-20T08:13:41;85515.76;;;22.64;36.79
55486;BME280;49383;-25.924;28.194;2023-03-20T08:16:07;85513.02;;;22.36;38.07
55486;BME280;49383;-25.924;28.194;2023-03-20T08:18:31;85508.81;;;22.54;37.88
55486;BME280;49383;-25.924;28.194;2023-03-20T08:20:57;85505.49;;;22.79;37.85
55486;BME280;49383;-25.924;28.194;2023-03-20T08:23:22;85502.82;;;22.43;38.35
55486;BME280;49383;-25.924;28.194;2023-03-20T08:25:49;85501.95;;;22.92;40.14
55486;BME280;49383;-25.924;28.194;2023-03-20T08:28:13;85504.02;;;22.57;41.57
55486;BME280;49383;-25.924;28.194;2023-03-20T08:30:39;85506.33;;;22.84;41.38
55486;BME280;49383;-25.924;28.194;2023-03-20T08:33:05;85507.92;;;22.89;41.62
55486;BME280;49383;-25.924;28.194;2023-03-20T08:35:31;85501.64;;;22.46;41.15
55486;BME280;49383;-25.924;28.194;2023-03-20T08:37:55;85502.55;;;22.81;39.72
55486;BME280;49383;-25.924;28.194;2023-03-20T08:40:20;85503.39;;;22.77;38.27
55486;BME280;49383;-25.924;28.194;2023-03-20T08:42:46;85502.37;;;22.69;36.72
55486;BME280;49383;-25.924;28.194;2023-03-20T08:45:11;85500.74;;;23.13;35.82
55486;BME280;49383;-25.924;28.194;2023-03-20T08:47:37;85497.99;;;22.71;35.55
55486;BME280;49383;-25.924;28.194;2023-03-20T08:50:02;85493.38;;;22.73;35.90
55486;BME280;49383;-25.924;28.194;2023-03-20T08:52:27;85493.05;;;22.63;36.57
55486;BME280;49383;-25.924;28.194;2023-03-20T08:54:52;85488.17;;;22.71;35.74
55486;BME280;49383;-25.924;28.194;2023-03-20T08:57:18;85486.55;;;22.28;34.94
55486;BME280;49383;-25.924;28.194;2023-03-20T08:59:43;85489.22;;;22.54;34.64
55486;BME280;49383;-25.924;28.194;2023-03-20T09:02:09;85486.36;;;22.32;35.29
55486;BME280;49383;-25.924;28.194;2023-03-20T09:04:33;85485.91;;;22.26;35.72
55486;BME280;49383;-25.924;28.194;2023-03-20T09:06:59;85487.01;;;22.16;36.96
55486;BME280;49383;-25.924;28.194;2023-03-20T09:09:24;85488.50;;;22.32;37.71
55486;BME280;49383;-25.924;28.194;2023-03-20T09:11:50;85485.13;;;21.90;38.58
55486;BME280;49383;-25.924;28.194;2023-03-20T09:14:15;85483.48;;;21.98;37.89
55486;BME280;49383;-25.924;28.194;2023-03-20T09:16:41;85480.71;;;22.24;37.73
55486;BME280;49383;-25.924;28.194;2023-03-20T09:19:06;85473.21;;;21.92;39.80
55486;BME280;49383;-25.924;28.194;2023-03-20T09:21:31;85466.56;;;22.33;39.53
55486;BME280;49383;-25.924;28.194;2023-03-20T09:23:57;85465.72;;;22.54;36.90
55486;BME280;49383;-25.924;28.194;2023-03-20T09:26:22;85462.42;;;22.95;35.88
55486;BME280;49383;-25.924;28.194;2023-03-20T09:28:47;85454.07;;;22.77;34.90
55486;BME280;49383;-25.924;28.194;2023-03-20T09:31:12;85454.10;;;22.50;35.49
55486;BME280;49383;-25.924;28.194;2023-03-20T09:33:38;85451.10;;;22.76;36.18
55486;BME280;49383;-25.924;28.194;2023-03-20T09:36:04;85448.87;;;22.29;37.08
55486;BME280;49383;-25.924;28.194;2023-03-20T09:38:29;85449.04;;;22.04;38.42
55486;BME280;49383;-25.924;28.194;2023-03-20T09:40:57;85443.46;;;22.14;38.02
55486;BME280;49383;-25.924;28.194;2023-03-20T09:43:30;85444.68;;;22.44;39.10
55486;BME280;49383;-25.924;28.194;2023-03-20T09:45:52;85441.92;;;22.06;38.92
55486;BME280;49383;-25.924;28.194;2023-03-20T09:48:16;85438.25;;;22.27;38.82
55486;BME280;49383;-25.924;28.194;2023-03-20T09:50:41;85437.55;;;22.07;39.83
55486;BME280;49383;-25.924;28.194;2023-03-20T09:53:07;85435.65;;;22.05;40.69
55486;BME280;49383;-25.924;28.194;2023-03-20T09:55:33;85429.89;;;22.32;41.25
55486;BME280;49383;-25.924;28.194;2023-03-20T09:57:57;85424.75;;;22.08;41.82
55486;BME280;49383;-25.924;28.194;2023-03-20T10:00:19;85418.73;;;22.15;42.25
55486;BME280;49383;-25.924;28.194;2023-03-20T10:02:46;85416.86;;;22.02;42.73
55486;BME280;49383;-25.924;28.194;2023-03-20T10:05:17;85412.89;;;22.05;42.93
55486;BME280;49383;-25.924;28.194;2023-03-20T10:07:33;85407.78;;;21.79;43.19
55486;BME280;49383;-25.924;28.194;2023-03-20T10:09:58;85401.03;;;22.16;43.22
55486;BME280;49383;-25.924;28.194;2023-03-20T10:12:31;85398.83;;;22.01;43.56
55486;BME280;49383;-25.924;28.194;2023-03-20T10:14:55;85399.21;;;22.07;43.61
55486;BME280;49383;-25.924;28.194;2023-03-20T10:17:25;85393.48;;;22.35;43.32
55486;BME280;49383;-25.924;28.194;2023-03-20T10:19:43;85388.69;;;22.03;43.88
55486;BME280;49383;-25.924;28.194;2023-03-20T10:22:13;85385.43;;;21.83;44.33
55486;BME280;49383;-25.924;28.194;2023-03-20T10:24:35;85380.14;;;21.72;44.65
55486;BME280;49383;-25.924;28.194;2023-03-20T10:27:00;85381.29;;;21.82;45.00
55486;BME280;49383;-25.924;28.194;2023-03-20T10:29:28;85378.93;;;21.57;45.17
55486;BME280;49383;-25.924;28.194;2023-03-20T10:31:50;85380.87;;;22.06;45.14
55486;BME280;49383;-25.924;28.194;2023-03-20T10:34:18;85377.00;;;22.05;45.23
55486;BME280;49383;-25.924;28.194;2023-03-20T10:36:45;85374.23;;;21.92;45.53
55486;BME280;49383;-25.924;28.194;2023-03-20T10:39:03;85368.38;;;21.66;45.59
55486;BME280;49383;-25.924;28.194;2023-03-20T10:41:31;85369.94;;;21.85;45.72
55486;BME280;49383;-25.924;28.194;2023-03-20T10:43:51;85368.21;;;21.51;45.60
55486;BME280;49383;-25.924;28.194;2023-03-20T10:46:18;85365.26;;;22.01;45.55
55486;BME280;49383;-25.924;28.194;2023-03-20T10:48:44;85362.62;;;21.89;45.76
55486;BME280;49383;-25.924;28.194;2023-03-20T10:51:09;85357.97;;;21.75;45.97
55486;BME280;49383;-25.924;28.194;2023-03-20T10:53:34;85359.18;;;21.42;46.25
55486;BME280;49383;-25.924;28.194;2023-03-20T10:55:58;85359.05;;;21.31;46.47
55486;BME280;49383;-25.924;28.194;2023-03-20T10:58:22;85353.17;;;21.42;46.45
55486;BME280;49383;-25.924;28.194;2023-03-20T11:00:45;85352.16;;;21.60;46.56
55486;BME280;49383;-25.924;28.194;2023-03-20T11:03:20;85356.92;;;21.71;46.42
55486;BME280;49383;-25.924;28.194;2023-03-20T11:05:36;85351.69;;;21.58;46.68
55486;BME280;49383;-25.924;28.194;2023-03-20T11:08:03;85346.02;;;21.96;46.48
55486;BME280;49383;-25.924;28.194;2023-03-20T11:10:27;85344.59;;;21.85;46.78
55486;BME280;49383;-25.924;28.194;2023-03-20T11:12:51;85346.92;;;21.39;47.14
55486;BME280;49383;-25.924;28.194;2023-03-20T11:15:22;85335.55;;;21.47;47.01
55486;BME280;49383;-25.924;28.194;2023-03-20T11:17:41;85334.16;;;21.58;46.82
55486;BME280;49383;-25.924;28.194;2023-03-20T11:20:09;85333.90;;;21.69;46.57
55486;BME280;49383;-25.924;28.194;2023-03-20T11:22:31;85331.77;;;21.58;46.76
55486;BME280;49383;-25.924;28.194;2023-03-20T11:24:58;85330.21;;;21.62;46.36
55486;BME280;49383;-25.924;28.194;2023-03-20T11:27:26;85332.80;;;21.54;46.43
55486;BME280;49383;-25.924;28.194;2023-03-20T11:29:48;85329.97;;;21.61;46.77
55486;BME280;49383;-25.924;28.194;2023-03-20T11:32:21;85327.02;;;21.60;46.83
55486;BME280;49383;-25.924;28.194;2023-03-20T11:34:38;85321.75;;;21.61;46.77
55486;BME280;49383;-25.924;28.194;2023-03-20T11:37:06;85320.07;;;21.44;47.01
55486;BME280;49383;-25.924;28.194;2023-03-20T11:39:28;85315.29;;;21.81;46.85
55486;BME280;49383;-25.924;28.194;2023-03-20T11:41:53;85314.97;;;21.52;46.92
55486;BME280;49383;-25.924;28.194;2023-03-20T11:44:23;85316.00;;;21.42;47.18
55486;BME280;49383;-25.924;28.194;2023-03-20T11:46:42;85314.83;;;21.43;47.20
55486;BME280;49383;-25.924;28.194;2023-03-20T11:49:18;85310.78;;;21.56;47.49
55486;BME280;49383;-25.924;28.194;2023-03-20T11:51:35;85306.46;;;21.27;47.54
55486;BME280;49383;-25.924;28.194;2023-03-20T11:54:00;85301.19;;;21.24;47.65
55486;BME280;49383;-25.924;28.194;2023-03-20T11:56:24;85301.85;;;21.37;47.49
55486;BME280;49383;-25.924;28.194;2023-03-20T11:58:53;85300.70;;;21.34;47.53
55486;BME280;49383;-25.924;28.194;2023-03-20T12:01:13;85293.27;;;21.27;47.61
55486;BME280;49383;-25.924;28.194;2023-03-20T12:03:42;85289.30;;;21.54;47.67
55486;BME280;49383;-25.924;28.194;2023-03-20T12:06:06;85288.12;;;21.13;47.90
55486;BME280;49383;-25.924;28.194;2023-03-20T12:08:28;85283.09;;;20.90;48.00
55486;BME280;49383;-25.924;28.194;2023-03-20T12:10:56;85280.67;;;21.51;48.18
55486;BME280;49383;-25.924;28.194;2023-03-20T12:13:20;85274.61;;;21.31;48.12
55486;BME280;49383;-25.924;28.194;2023-03-20T12:15:46;85274.46;;;21.04;48.11
55486;BME280;49383;-25.924;28.194;2023-03-20T12:18:11;85267.12;;;21.19;47.85
55486;BME280;49383;-25.924;28.194;2023-03-20T12:20:37;85265.36;;;20.96;47.87
55486;BME280;49383;-25.924;28.194;2023-03-20T12:23:08;85263.22;;;21.22;47.86
55486;BME280;49383;-25.924;28.194;2023-03-20T12:25:25;85260.42;;;21.67;47.97
55486;BME280;49383;-25.924;28.194;2023-03-20T12:27:55;85260.29;;;21.27;47.85
55486;BME280;49383;-25.924;28.194;2023-03-20T12:30:18;85251.02;;;21.59;47.77
55486;BME280;49383;-25.924;28.194;2023-03-20T12:32:43;85246.28;;;21.55;47.87
55486;BME280;49383;-25.924;28.194;2023-03-20T12:35:08;85243.85;;;21.48;48.10
55486;BME280;49383;-25.924;28.194;2023-03-20T12:37:28;85242.01;;;21.45;48.20
55486;BME280;49383;-25.924;28.194;2023-03-20T12:39:55;85238.84;;;21.38;48.36
55486;BME280;49383;-25.924;28.194;2023-03-20T12:42:26;85238.87;;;21.17;48.39